Taneyville, Missouri
Current Conditions -  °F | °C
As of 9:47 AM on Sunday 21 Dec 2014 (Local Time) from KBBG Reporting Station
Overcast Overcast  
Wind Chill:   Ceiling: 3000
Heat Index:   Visibility: 10mi
Dew Point:   Wind: 9mph
Humidity: 93%   Direction: 150°SSE
Pressure: 30.13"   Gusts: NA
Location:  36.74°N, 93.03°W
Report Text: KBBG 211547Z 15008KT 10SM OVC030 04/03 A3013
Loading
Personal Weather Stations






























Interactive Weather Map New forecast layout! Learn more

10-Day Weather Forecast

Advertisements
Track Severe Weather on mobile